sensor_id;sensor_type;location;lat;lon;timestamp;pressure;altitude;pressure_sealevel;temperature;humidity
60832;BME280;46665;51.558;-0.448;2023-04-27T00:02:09;101360.88;;;6.69;99.53
60832;BME280;46665;51.558;-0.448;2023-04-27T00:04:35;101362.50;;;6.70;98.97
60832;BME280;46665;51.558;-0.448;2023-04-27T00:07:01;101359.91;;;6.76;98.71
60832;BME280;46665;51.558;-0.448;2023-04-27T00:09:27;101360.16;;;6.74;98.27
60832;BME280;46665;51.558;-0.448;2023-04-27T00:11:53;101359.34;;;6.73;98.53
60832;BME280;46665;51.558;-0.448;2023-04-27T00:14:18;101348.16;;;6.70;99.13
60832;BME280;46665;51.558;-0.448;2023-04-27T00:16:45;101356.88;;;6.72;98.85
60832;BME280;46665;51.558;-0.448;2023-04-27T00:19:10;101347.25;;;6.64;98.94
60832;BME280;46665;51.558;-0.448;2023-04-27T00:21:37;101348.44;;;6.68;98.25
60832;BME280;46665;51.558;-0.448;2023-04-27T00:24:03;101348.44;;;6.68;99.05
60832;BME280;46665;51.558;-0.448;2023-04-27T00:26:28;101344.53;;;6.64;98.79
60832;BME280;46665;51.558;-0.448;2023-04-27T00:28:54;101346.19;;;6.65;98.39
60832;BME280;46665;51.558;-0.448;2023-04-27T00:31:19;101346.66;;;6.62;99.30
60832;BME280;46665;51.558;-0.448;2023-04-27T00:33:45;101350.44;;;6.61;98.54
60832;BME280;46665;51.558;-0.448;2023-04-27T00:36:10;101346.88;;;6.61;99.46
60832;BME280;46665;51.558;-0.448;2023-04-27T00:38:35;101339.50;;;6.56;99.33
60832;BME280;46665;51.558;-0.448;2023-04-27T00:41:05;101334.66;;;6.58;99.86
60832;BME280;46665;51.558;-0.448;2023-04-27T00:43:31;101341.97;;;6.58;99.82
60832;BME280;46665;51.558;-0.448;2023-04-27T00:45:57;101329.72;;;6.55;99.77
60832;BME280;46665;51.558;-0.448;2023-04-27T00:48:23;101338.22;;;6.59;100.00
60832;BME280;46665;51.558;-0.448;2023-04-27T00:50:49;101329.50;;;6.57;99.73
60832;BME280;46665;51.558;-0.448;2023-04-27T00:53:14;101322.31;;;6.50;99.81
60832;BME280;46665;51.558;-0.448;2023-04-27T00:55:40;101320.34;;;6.46;100.00
60832;BME280;46665;51.558;-0.448;2023-04-27T00:58:05;101313.75;;;6.42;100.00
60832;BME280;46665;51.558;-0.448;2023-04-27T01:00:31;101304.47;;;6.38;100.00
60832;BME280;46665;51.558;-0.448;2023-04-27T01:02:56;101298.13;;;6.32;100.00
60832;BME280;46665;51.558;-0.448;2023-04-27T01:05:24;101285.59;;;6.26;100.00
60832;BME280;46665;51.558;-0.448;2023-04-27T01:07:50;101291.69;;;6.21;100.00
60832;BME280;46665;51.558;-0.448;2023-04-27T01:10:15;101284.78;;;6.14;100.00
60832;BME280;46665;51.558;-0.448;2023-04-27T01:12:41;101272.56;;;6.11;100.00
60832;BME280;46665;51.558;-0.448;2023-04-27T01:15:07;101270.06;;;6.10;100.00
60832;BME280;46665;51.558;-0.448;2023-04-27T01:17:32;101267.25;;;6.04;100.00
60832;BME280;46665;51.558;-0.448;2023-04-27T01:19:58;101265.84;;;6.02;100.00
60832;BME280;46665;51.558;-0.448;2023-04-27T01:22:23;101253.28;;;5.96;100.00
60832;BME280;46665;51.558;-0.448;2023-04-27T01:24:49;101259.16;;;5.93;100.00
60832;BME280;46665;51.558;-0.448;2023-04-27T01:27:15;101267.69;;;5.90;100.00
60832;BME280;46665;51.558;-0.448;2023-04-27T01:29:40;101257.97;;;5.89;100.00
60832;BME280;46665;51.558;-0.448;2023-04-27T01:32:06;101259.25;;;5.86;100.00
60832;BME280;46665;51.558;-0.448;2023-04-27T01:34:31;101263.72;;;5.80;100.00
60832;BME280;46665;51.558;-0.448;2023-04-27T01:36:57;101257.72;;;5.78;100.00
60832;BME280;46665;51.558;-0.448;2023-04-27T01:39:22;101258.06;;;5.70;100.00
60832;BME280;46665;51.558;-0.448;2023-04-27T01:41:47;101261.81;;;5.69;100.00
60832;BME280;46665;51.558;-0.448;2023-04-27T01:44:13;101263.78;;;5.62;100.00
60832;BME280;46665;51.558;-0.448;2023-04-27T01:46:38;101258.53;;;5.55;100.00
60832;BME280;46665;51.558;-0.448;2023-04-27T01:49:04;101268.38;;;5.50;100.00
60832;BME280;46665;51.558;-0.448;2023-04-27T01:51:30;101270.94;;;5.45;100.00
60832;BME280;46665;51.558;-0.448;2023-04-27T01:53:57;101270.34;;;5.42;100.00
60832;BME280;46665;51.558;-0.448;2023-04-27T01:56:22;101277.84;;;5.40;100.00
60832;BME280;46665;51.558;-0.448;2023-04-27T01:58:47;101290.63;;;5.33;100.00
60832;BME280;46665;51.558;-0.448;2023-04-27T02:01:13;101295.75;;;5.23;100.00
60832;BME280;46665;51.558;-0.448;2023-04-27T02:03:38;101294.88;;;5.11;100.00
60832;BME280;46665;51.558;-0.448;2023-04-27T02:06:04;101292.97;;;4.99;100.00
60832;BME280;46665;51.558;-0.448;2023-04-27T02:08:29;101295.88;;;4.98;100.00
60832;BME280;46665;51.558;-0.448;2023-04-27T02:10:54;101294.72;;;4.94;100.00
60832;BME280;46665;51.558;-0.448;2023-04-27T02:13:20;101299.97;;;4.89;100.00
60832;BME280;46665;51.558;-0.448;2023-04-27T02:15:45;101309.63;;;4.78;100.00
60832;BME280;46665;51.558;-0.448;2023-04-27T02:18:11;101304.47;;;4.76;100.00
60832;BME280;46665;51.558;-0.448;2023-04-27T02:20:38;101307.16;;;4.76;100.00
60832;BME280;46665;51.558;-0.448;2023-04-27T02:23:03;101304.06;;;4.73;100.00
60832;BME280;46665;51.558;-0.448;2023-04-27T02:25:29;101294.66;;;4.64;100.00
60832;BME280;46665;51.558;-0.448;2023-04-27T02:27:54;101295.78;;;4.56;100.00
60832;BME280;46665;51.558;-0.448;2023-04-27T02:30:20;101294.72;;;4.57;100.00
60832;BME280;46665;51.558;-0.448;2023-04-27T02:32:45;101298.72;;;4.54;100.00
60832;BME280;46665;51.558;-0.448;2023-04-27T02:35:11;101290.00;;;4.52;100.00
60832;BME280;46665;51.558;-0.448;2023-04-27T02:37:37;101285.28;;;4.48;100.00
60832;BME280;46665;51.558;-0.448;2023-04-27T02:40:03;101286.81;;;4.44;100.00
60832;BME280;46665;51.558;-0.448;2023-04-27T02:42:31;101282.09;;;4.39;100.00
60832;BME280;46665;51.558;-0.448;2023-04-27T02:44:56;101282.53;;;4.36;100.00
60832;BME280;46665;51.558;-0.448;2023-04-27T02:47:21;101283.97;;;4.39;100.00
60832;BME280;46665;51.558;-0.448;2023-04-27T02:49:47;101278.19;;;4.35;100.00
60832;BME280;46665;51.558;-0.448;2023-04-27T02:52:12;101282.75;;;4.34;100.00
60832;BME280;46665;51.558;-0.448;2023-04-27T02:54:38;101274.72;;;4.28;100.00
60832;BME280;46665;51.558;-0.448;2023-04-27T02:57:03;101277.88;;;4.25;100.00
60832;BME280;46665;51.558;-0.448;2023-04-27T02:59:28;101268.63;;;4.21;100.00
60832;BME280;46665;51.558;-0.448;2023-04-27T03:01:54;101275.28;;;4.18;100.00
60832;BME280;46665;51.558;-0.448;2023-04-27T03:04:19;101271.97;;;4.16;100.00
60832;BME280;46665;51.558;-0.448;2023-04-27T03:06:45;101279.09;;;4.10;100.00
60832;BME280;46665;51.558;-0.448;2023-04-27T03:09:10;101282.13;;;4.14;100.00
60832;BME280;46665;51.558;-0.448;2023-04-27T03:11:36;101274.97;;;4.08;100.00
60832;BME280;46665;51.558;-0.448;2023-04-27T03:14:02;101267.69;;;4.08;100.00
60832;BME280;46665;51.558;-0.448;2023-04-27T03:16:30;101269.78;;;4.06;100.00
60832;BME280;46665;51.558;-0.448;2023-04-27T03:18:56;101278.47;;;4.08;100.00
60832;BME280;46665;51.558;-0.448;2023-04-27T03:21:21;101263.78;;;4.04;100.00
60832;BME280;46665;51.558;-0.448;2023-04-27T03:23:47;101254.53;;;4.00;100.00
60832;BME280;46665;51.558;-0.448;2023-04-27T03:26:13;101251.84;;;4.00;100.00
60832;BME280;46665;51.558;-0.448;2023-04-27T03:28:39;101262.00;;;3.98;100.00
60832;BME280;46665;51.558;-0.448;2023-04-27T03:31:09;101262.81;;;3.99;100.00
60832;BME280;46665;51.558;-0.448;2023-04-27T03:33:36;101248.13;;;3.95;100.00
60832;BME280;46665;51.558;-0.448;2023-04-27T03:36:02;101240.34;;;3.86;100.00
60832;BME280;46665;51.558;-0.448;2023-04-27T03:38:29;101245.97;;;3.85;100.00
60832;BME280;46665;51.558;-0.448;2023-04-27T03:40:54;101262.34;;;3.83;100.00
60832;BME280;46665;51.558;-0.448;2023-04-27T03:43:20;101261.94;;;3.80;100.00
60832;BME280;46665;51.558;-0.448;2023-04-27T03:45:46;101254.47;;;3.82;100.00
60832;BME280;46665;51.558;-0.448;2023-04-27T03:48:15;101246.03;;;3.78;100.00
60832;BME280;46665;51.558;-0.448;2023-04-27T03:50:42;101245.22;;;3.78;100.00
60832;BME280;46665;51.558;-0.448;2023-04-27T03:53:08;101257.81;;;3.77;100.00
60832;BME280;46665;51.558;-0.448;2023-04-27T03:55:37;101235.31;;;3.72;100.00
60832;BME280;46665;51.558;-0.448;2023-04-27T03:58:02;101240.50;;;3.73;100.00
60832;BME280;46665;51.558;-0.448;2023-04-27T04:00:28;101240.09;;;3.69;100.00
60832;BME280;46665;51.558;-0.448;2023-04-27T04:02:53;101239.66;;;3.73;100.00
60832;BME280;46665;51.558;-0.448;2023-04-27T04:05:18;101225.38;;;3.72;100.00
60832;BME280;46665;51.558;-0.448;2023-04-27T04:07:44;101233.03;;;3.75;100.00
60832;BME280;46665;51.558;-0.448;2023-04-27T04:10:09;101230.91;;;3.77;100.00
60832;BME280;46665;51.558;-0.448;2023-04-27T04:12:35;101226.78;;;3.75;100.00
60832;BME280;46665;51.558;-0.448;2023-04-27T04:15:02;101236.91;;;3.79;100.00
60832;BME280;46665;51.558;-0.448;2023-04-27T04:17:27;101222.16;;;3.82;100.00
60832;BME280;46665;51.558;-0.448;2023-04-27T04:19:53;101222.56;;;3.85;100.00
60832;BME280;46665;51.558;-0.448;2023-04-27T04:22:18;101227.28;;;3.90;100.00
60832;BME280;46665;51.558;-0.448;2023-04-27T04:24:43;101222.72;;;3.90;100.00
60832;BME280;46665;51.558;-0.448;2023-04-27T04:27:09;101227.66;;;3.94;100.00
60832;BME280;46665;51.558;-0.448;2023-04-27T04:29:34;101216.69;;;3.95;100.00
60832;BME280;46665;51.558;-0.448;2023-04-27T04:32:00;101213.75;;;3.97;100.00
60832;BME280;46665;51.558;-0.448;2023-04-27T04:34:25;101202.31;;;4.01;100.00
60832;BME280;46665;51.558;-0.448;2023-04-27T04:36:51;101211.00;;;4.03;100.00
60832;BME280;46665;51.558;-0.448;2023-04-27T04:39:17;101209.88;;;4.11;100.00
60832;BME280;46665;51.558;-0.448;2023-04-27T04:41:45;101214.34;;;4.17;100.00
60832;BME280;46665;51.558;-0.448;2023-04-27T04:44:11;101214.28;;;4.24;100.00
60832;BME280;46665;51.558;-0.448;2023-04-27T04:46:38;101214.88;;;4.26;100.00
60832;BME280;46665;51.558;-0.448;2023-04-27T04:49:03;101199.91;;;4.30;100.00
60832;BME280;46665;51.558;-0.448;2023-04-27T04:51:29;101208.50;;;4.39;100.00
60832;BME280;46665;51.558;-0.448;2023-04-27T04:53:54;101208.41;;;4.45;100.00
60832;BME280;46665;51.558;-0.448;2023-04-27T04:56:20;101206.91;;;4.49;100.00
60832;BME280;46665;51.558;-0.448;2023-04-27T04:58:46;101206.00;;;4.55;100.00
60832;BME280;46665;51.558;-0.448;2023-04-27T05:01:11;101208.41;;;4.64;100.00
60832;BME280;46665;51.558;-0.448;2023-04-27T05:03:36;101201.34;;;4.63;100.00
60832;BME280;46665;51.558;-0.448;2023-04-27T05:06:02;101200.88;;;4.66;100.00
60832;BME280;46665;51.558;-0.448;2023-04-27T05:08:27;101195.28;;;4.67;100.00
60832;BME280;46665;51.558;-0.448;2023-04-27T05:10:53;101197.31;;;4.72;100.00
60832;BME280;46665;51.558;-0.448;2023-04-27T05:13:19;101200.13;;;4.77;100.00
60832;BME280;46665;51.558;-0.448;2023-04-27T05:15:45;101198.63;;;4.81;100.00
60832;BME280;46665;51.558;-0.448;2023-04-27T05:18:11;101206.38;;;4.89;100.00
60832;BME280;46665;51.558;-0.448;2023-04-27T05:20:37;101193.84;;;4.95;100.00
60832;BME280;46665;51.558;-0.448;2023-04-27T05:23:03;101196.81;;;5.05;100.00
60832;BME280;46665;51.558;-0.448;2023-04-27T05:25:29;101199.03;;;5.08;100.00
60832;BME280;46665;51.558;-0.448;2023-04-27T05:27:55;101195.44;;;5.14;100.00
60832;BME280;46665;51.558;-0.448;2023-04-27T05:30:20;101202.59;;;5.20;100.00
60832;BME280;46665;51.558;-0.448;2023-04-27T05:32:46;101207.09;;;5.27;100.00
60832;BME280;46665;51.558;-0.448;2023-04-27T05:35:11;101204.50;;;5.32;100.00
60832;BME280;46665;51.558;-0.448;2023-04-27T05:37:37;101197.34;;;5.37;100.00
60832;BME280;46665;51.558;-0.448;2023-04-27T05:40:02;101198.50;;;5.41;100.00
60832;BME280;46665;51.558;-0.448;2023-04-27T05:42:30;101196.06;;;5.52;100.00
60832;BME280;46665;51.558;-0.448;2023-04-27T05:44:55;101202.16;;;5.59;100.00
60832;BME280;46665;51.558;-0.448;2023-04-27T05:47:21;101196.41;;;5.67;100.00
60832;BME280;46665;51.558;-0.448;2023-04-27T05:49:50;101207.47;;;5.77;100.00
60832;BME280;46665;51.558;-0.448;2023-04-27T05:52:17;101217.09;;;5.85;100.00
60832;BME280;46665;51.558;-0.448;2023-04-27T05:54:49;101214.88;;;5.94;100.00
60832;BME280;46665;51.558;-0.448;2023-04-27T05:57:15;101218.03;;;6.02;100.00
60832;BME280;46665;51.558;-0.448;2023-04-27T05:59:41;101220.13;;;6.12;100.00
60832;BME280;46665;51.558;-0.448;2023-04-27T06:02:07;101218.94;;;6.20;100.00
60832;BME280;46665;51.558;-0.448;2023-04-27T06:04:33;101232.94;;;6.28;100.00
60832;BME280;46665;51.558;-0.448;2023-04-27T06:06:59;101222.56;;;6.37;100.00
60832;BME280;46665;51.558;-0.448;2023-04-27T06:09:24;101210.81;;;6.43;100.00
60832;BME280;46665;51.558;-0.448;2023-04-27T06:11:50;101218.88;;;6.55;100.00
60832;BME280;46665;51.558;-0.448;2023-04-27T06:14:16;101221.09;;;6.58;100.00
60832;BME280;46665;51.558;-0.448;2023-04-27T06:16:42;101228.59;;;6.68;100.00
60832;BME280;46665;51.558;-0.448;2023-04-27T06:19:07;101230.94;;;6.76;100.00
60832;BME280;46665;51.558;-0.448;2023-04-27T06:21:33;101231.84;;;6.82;100.00
60832;BME280;46665;51.558;-0.448;2023-04-27T06:23:59;101234.72;;;6.92;100.00
60832;BME280;46665;51.558;-0.448;2023-04-27T06:26:25;101225.41;;;7.00;100.00
60832;BME280;46665;51.558;-0.448;2023-04-27T06:28:50;101222.28;;;7.08;100.00
60832;BME280;46665;51.558;-0.448;2023-04-27T06:31:16;101226.72;;;7.14;100.00
60832;BME280;46665;51.558;-0.448;2023-04-27T06:33:41;101223.28;;;7.19;100.00
60832;BME280;46665;51.558;-0.448;2023-04-27T06:36:07;101220.44;;;7.25;100.00
60832;BME280;46665;51.558;-0.448;2023-04-27T06:38:33;101212.91;;;7.27;100.00
60832;BME280;46665;51.558;-0.448;2023-04-27T06:40:58;101208.16;;;7.34;100.00
60832;BME280;46665;51.558;-0.448;2023-04-27T06:43:24;101207.38;;;7.39;100.00
60832;BME280;46665;51.558;-0.448;2023-04-27T06:45:49;101209.28;;;7.38;100.00
60832;BME280;46665;51.558;-0.448;2023-04-27T06:48:15;101199.84;;;7.41;100.00
60832;BME280;46665;51.558;-0.448;2023-04-27T06:50:41;101205.34;;;7.46;100.00
60832;BME280;46665;51.558;-0.448;2023-04-27T06:53:07;101205.91;;;7.48;100.00
60832;BME280;46665;51.558;-0.448;2023-04-27T06:55:33;101209.53;;;7.54;100.00
60832;BME280;46665;51.558;-0.448;2023-04-27T06:57:58;101215.84;;;7.59;100.00
60832;BME280;46665;51.558;-0.448;2023-04-27T07:00:24;101212.38;;;7.64;100.00
60832;BME280;46665;51.558;-0.448;2023-04-27T07:02:49;101210.59;;;7.70;100.00
60832;BME280;46665;51.558;-0.448;2023-04-27T07:05:16;101206.31;;;7.74;100.00
60832;BME280;46665;51.558;-0.448;2023-04-27T07:07:41;101213.47;;;7.80;100.00
60832;BME280;46665;51.558;-0.448;2023-04-27T07:10:07;101216.47;;;7.84;100.00
60832;BME280;46665;51.558;-0.448;2023-04-27T07:12:33;101209.25;;;7.89;100.00
60832;BME280;46665;51.558;-0.448;2023-04-27T07:14:58;101213.91;;;7.94;100.00
60832;BME280;46665;51.558;-0.448;2023-04-27T07:17:24;101208.50;;;7.94;100.00
60832;BME280;46665;51.558;-0.448;2023-04-27T07:19:49;101201.50;;;7.98;100.00
60832;BME280;46665;51.558;-0.448;2023-04-27T07:22:15;101212.16;;;8.04;100.00
60832;BME280;46665;51.558;-0.448;2023-04-27T07:24:40;101210.03;;;8.07;100.00
60832;BME280;46665;51.558;-0.448;2023-04-27T07:27:06;101204.94;;;8.10;99.59
60832;BME280;46665;51.558;-0.448;2023-04-27T07:29:33;101204.16;;;8.15;99.14
60832;BME280;46665;51.558;-0.448;2023-04-27T07:32:04;101201.50;;;8.20;98.70
60832;BME280;46665;51.558;-0.448;2023-04-27T07:34:30;101201.59;;;8.25;98.55
60832;BME280;46665;51.558;-0.448;2023-04-27T07:36:56;101201.41;;;8.32;98.53
60832;BME280;46665;51.558;-0.448;2023-04-27T07:39:21;101206.06;;;8.36;97.85
60832;BME280;46665;51.558;-0.448;2023-04-27T07:41:46;101205.59;;;8.39;97.10
60832;BME280;46665;51.558;-0.448;2023-04-27T07:44:12;101204.09;;;8.49;96.34
60832;BME280;46665;51.558;-0.448;2023-04-27T07:46:37;101216.13;;;8.58;96.17
60832;BME280;46665;51.558;-0.448;2023-04-27T07:49:03;101210.75;;;8.63;94.81
60832;BME280;46665;51.558;-0.448;2023-04-27T07:51:28;101221.41;;;8.70;93.25
60832;BME280;46665;51.558;-0.448;2023-04-27T07:53:54;101218.47;;;8.71;91.28
60832;BME280;46665;51.558;-0.448;2023-04-27T07:56:19;101225.75;;;8.71;92.78
60832;BME280;46665;51.558;-0.448;2023-04-27T07:58:45;101216.28;;;8.73;93.33
60832;BME280;46665;51.558;-0.448;2023-04-27T08:01:11;101211.69;;;8.74;91.79
60832;BME280;46665;51.558;-0.448;2023-04-27T08:03:36;101201.16;;;8.77;92.16
60832;BME280;46665;51.558;-0.448;2023-04-27T08:06:01;101192.53;;;8.85;91.70
60832;BME280;46665;51.558;-0.448;2023-04-27T08:08:28;101179.81;;;8.91;91.11
60832;BME280;46665;51.558;-0.448;2023-04-27T08:10:54;101189.97;;;9.01;90.27
60832;BME280;46665;51.558;-0.448;2023-04-27T08:13:19;101181.88;;;9.06;89.23
60832;BME280;46665;51.558;-0.448;2023-04-27T08:15:45;101185.19;;;9.13;89.08
60832;BME280;46665;51.558;-0.448;2023-04-27T08:18:10;101194.78;;;9.21;88.88
60832;BME280;46665;51.558;-0.448;2023-04-27T08:20:36;101189.13;;;9.27;87.99
60832;BME280;46665;51.558;-0.448;2023-04-27T08:23:01;101197.00;;;9.29;86.53
60832;BME280;46665;51.558;-0.448;2023-04-27T08:25:26;101197.03;;;9.34;86.72
60832;BME280;46665;51.558;-0.448;2023-04-27T08:27:52;101197.03;;;9.34;83.67
60832;BME280;46665;51.558;-0.448;2023-04-27T08:30:17;101186.50;;;9.38;85.04
60832;BME280;46665;51.558;-0.448;2023-04-27T08:32:43;101190.31;;;9.42;84.41
60832;BME280;46665;51.558;-0.448;2023-04-27T08:35:08;101183.03;;;9.47;84.25
60832;BME280;46665;51.558;-0.448;2023-04-27T08:37:34;101179.00;;;9.50;83.17
60832;BME280;46665;51.558;-0.448;2023-04-27T08:40:01;101186.09;;;9.56;81.75
60832;BME280;46665;51.558;-0.448;2023-04-27T08:42:27;101183.41;;;9.61;80.66
60832;BME280;46665;51.558;-0.448;2023-04-27T08:44:54;101193.72;;;9.59;80.59
60832;BME280;46665;51.558;-0.448;2023-04-27T08:47:20;101182.88;;;9.64;81.04
60832;BME280;46665;51.558;-0.448;2023-04-27T08:49:46;101184.28;;;9.72;81.28
60832;BME280;46665;51.558;-0.448;2023-04-27T08:52:15;101179.19;;;9.81;80.54
60832;BME280;46665;51.558;-0.448;2023-04-27T08:54:41;101162.63;;;9.87;79.31
60832;BME280;46665;51.558;-0.448;2023-04-27T08:57:13;101150.19;;;9.96;79.10
60832;BME280;46665;51.558;-0.448;2023-04-27T08:59:39;101149.41;;;10.06;79.61
60832;BME280;46665;51.558;-0.448;2023-04-27T09:02:05;101165.53;;;10.18;79.02
60832;BME280;46665;51.558;-0.448;2023-04-27T09:04:38;101165.25;;;10.25;76.20
60832;BME280;46665;51.558;-0.448;2023-04-27T09:07:14;101142.47;;;10.31;76.28
60832;BME280;46665;51.558;-0.448;2023-04-27T09:09:40;101156.63;;;10.38;74.36
60832;BME280;46665;51.558;-0.448;2023-04-27T09:12:32;101156.13;;;10.46;73.01
60832;BME280;46665;51.558;-0.448;2023-04-27T09:14:59;101152.06;;;10.49;72.46
60832;BME280;46665;51.558;-0.448;2023-04-27T09:17:26;101149.34;;;10.59;72.77
60832;BME280;46665;51.558;-0.448;2023-04-27T09:20:02;101138.19;;;10.66;73.39
60832;BME280;46665;51.558;-0.448;2023-04-27T09:22:41;101140.41;;;10.74;72.66
60832;BME280;46665;51.558;-0.448;2023-04-27T09:25:07;101136.03;;;10.83;71.79
60832;BME280;46665;51.558;-0.448;2023-04-27T09:27:32;101132.78;;;10.86;71.86
60832;BME280;46665;51.558;-0.448;2023-04-27T09:29:58;101131.16;;;10.95;70.51
60832;BME280;46665;51.558;-0.448;2023-04-27T09:32:23;101131.16;;;11.05;69.83
60832;BME280;46665;51.558;-0.448;2023-04-27T09:34:48;101137.16;;;11.13;68.89
60832;BME280;46665;51.558;-0.448;2023-04-27T09:37:14;101137.97;;;11.18;67.35
60832;BME280;46665;51.558;-0.448;2023-04-27T09:39:40;101143.97;;;11.20;68.62
60832;BME280;46665;51.558;-0.448;2023-04-27T09:42:06;101139.63;;;11.24;66.91
60832;BME280;46665;51.558;-0.448;2023-04-27T09:44:32;101133.06;;;11.31;68.53
60832;BME280;46665;51.558;-0.448;2023-04-27T09:46:59;101137.13;;;11.33;67.21
60832;BME280;46665;51.558;-0.448;2023-04-27T09:49:26;101127.34;;;11.37;67.10
60832;BME280;46665;51.558;-0.448;2023-04-27T09:51:54;101127.84;;;11.39;65.54
60832;BME280;46665;51.558;-0.448;2023-04-27T09:54:23;101112.88;;;11.47;66.51
60832;BME280;46665;51.558;-0.448;2023-04-27T10:02:17;101105.75;;;11.61;64.71
60832;BME280;46665;51.558;-0.448;2023-04-27T10:05:07;101112.28;;;11.70;64.60
60832;BME280;46665;51.558;-0.448;2023-04-27T10:07:36;101111.16;;;11.77;63.84
60832;BME280;46665;51.558;-0.448;2023-04-27T10:10:02;101118.25;;;11.83;63.45
60832;BME280;46665;51.558;-0.448;2023-04-27T10:12:35;101122.84;;;11.82;63.62
60832;BME280;46665;51.558;-0.448;2023-04-27T10:15:11;101122.03;;;11.82;63.43
60832;BME280;46665;51.558;-0.448;2023-04-27T10:17:37;101114.69;;;11.82;64.36
60832;BME280;46665;51.558;-0.448;2023-04-27T10:20:05;101109.75;;;11.84;63.25
60832;BME280;46665;51.558;-0.448;2023-04-27T10:22:37;101119.59;;;11.90;64.01
60832;BME280;46665;51.558;-0.448;2023-04-27T10:27:38;101117.31;;;12.18;65.66
60832;BME280;46665;51.558;-0.448;2023-04-27T10:30:09;101104.69;;;12.27;65.15
60832;BME280;46665;51.558;-0.448;2023-04-27T10:32:35;101108.44;;;12.42;65.57
60832;BME280;46665;51.558;-0.448;2023-04-27T10:35:04;101092.56;;;12.49;64.05
60832;BME280;46665;51.558;-0.448;2023-04-27T10:37:40;101097.44;;;12.57;64.99
60832;BME280;46665;51.558;-0.448;2023-04-27T10:40:11;101090.31;;;12.61;64.67
60832;BME280;46665;51.558;-0.448;2023-04-27T10:42:43;101095.50;;;12.57;64.92
60832;BME280;46665;51.558;-0.448;2023-04-27T10:45:10;101096.91;;;12.55;65.49
60832;BME280;46665;51.558;-0.448;2023-04-27T10:47:41;101088.78;;;12.45;64.63
60832;BME280;46665;51.558;-0.448;2023-04-27T10:50:08;101081.34;;;12.50;66.28
60832;BME280;46665;51.558;-0.448;2023-04-27T10:52:42;101065.22;;;12.59;65.64
60832;BME280;46665;51.558;-0.448;2023-04-27T10:55:13;101072.22;;;12.70;66.08
60832;BME280;46665;51.558;-0.448;2023-04-27T10:57:52;101072.38;;;12.84;66.22
60832;BME280;46665;51.558;-0.448;2023-04-27T11:00:41;101052.03;;;13.00;65.37
60832;BME280;46665;51.558;-0.448;2023-04-27T11:03:11;101058.19;;;13.11;63.42
60832;BME280;46665;51.558;-0.448;2023-04-27T11:05:38;101035.78;;;13.14;64.60
60832;BME280;46665;51.558;-0.448;2023-04-27T11:08:09;101031.34;;;13.18;63.05
60832;BME280;46665;51.558;-0.448;2023-04-27T11:10:37;101036.81;;;13.18;62.27
60832;BME280;46665;51.558;-0.448;2023-04-27T11:13:11;101022.13;;;13.14;61.90
60832;BME280;46665;51.558;-0.448;2023-04-27T11:15:56;101024.59;;;13.11;61.72
60832;BME280;46665;51.558;-0.448;2023-04-27T11:18:24;101023.56;;;13.07;61.66
60832;BME280;46665;51.558;-0.448;2023-04-27T11:21:05;101012.75;;;12.96;61.75
60832;BME280;46665;51.558;-0.448;2023-04-27T11:23:34;101010.06;;;12.91;61.39
60832;BME280;46665;51.558;-0.448;2023-04-27T11:26:18;101009.28;;;12.86;61.91
60832;BME280;46665;51.558;-0.448;2023-04-27T11:29:00;101013.69;;;12.82;60.37
60832;BME280;46665;51.558;-0.448;2023-04-27T11:31:27;101009.94;;;12.72;62.08
60832;BME280;46665;51.558;-0.448;2023-04-27T11:34:02;101001.22;;;12.70;60.92
60832;BME280;46665;51.558;-0.448;2023-04-27T11:36:27;100994.47;;;12.63;62.24
60832;BME280;46665;51.558;-0.448;2023-04-27T11:38:56;100995.53;;;12.67;62.72
60832;BME280;46665;51.558;-0.448;2023-04-27T11:41:22;100989.22;;;12.71;63.52
60832;BME280;46665;51.558;-0.448;2023-04-27T11:44:03;100984.47;;;12.82;62.93
60832;BME280;46665;51.558;-0.448;2023-04-27T11:46:29;100977.50;;;12.95;62.17
60832;BME280;46665;51.558;-0.448;2023-04-27T11:49:00;100980.72;;;13.02;61.29
60832;BME280;46665;51.558;-0.448;2023-04-27T11:51:28;100987.22;;;13.06;61.56
60832;BME280;46665;51.558;-0.448;2023-04-27T11:53:54;100985.06;;;13.03;61.75
60832;BME280;46665;51.558;-0.448;2023-04-27T11:56:19;100978.69;;;12.89;60.80
60832;BME280;46665;51.558;-0.448;2023-04-27T11:58:45;100985.81;;;12.85;61.18
60832;BME280;46665;51.558;-0.448;2023-04-27T12:01:11;100980.41;;;12.79;62.62
60832;BME280;46665;51.558;-0.448;2023-04-27T12:03:37;100981.19;;;12.80;62.33
60832;BME280;46665;51.558;-0.448;2023-04-27T12:06:02;100978.19;;;12.82;61.91
60832;BME280;46665;51.558;-0.448;2023-04-27T12:08:28;100966.75;;;12.79;62.41
60832;BME280;46665;51.558;-0.448;2023-04-27T12:10:54;100958.03;;;12.77;62.02
60832;BME280;46665;51.558;-0.448;2023-04-27T12:13:20;100948.25;;;12.71;61.58
60832;BME280;46665;51.558;-0.448;2023-04-27T12:15:46;100948.72;;;12.78;62.36
60832;BME280;46665;51.558;-0.448;2023-04-27T12:18:12;100944.59;;;12.81;62.37
60832;BME280;46665;51.558;-0.448;2023-04-27T12:20:38;100947.53;;;12.90;62.85
60832;BME280;46665;51.558;-0.448;2023-04-27T12:23:03;100936.00;;;12.93;61.43
60832;BME280;46665;51.558;-0.448;2023-04-27T12:25:28;100930.16;;;13.05;61.89
60832;BME280;46665;51.558;-0.448;2023-04-27T12:27:54;100940.16;;;13.14;62.61
60832;BME280;46665;51.558;-0.448;2023-04-27T12:30:21;100926.91;;;13.27;62.21
60832;BME280;46665;51.558;-0.448;2023-04-27T12:32:47;100932.34;;;13.51;61.58
60832;BME280;46665;51.558;-0.448;2023-04-27T12:35:13;100926.22;;;13.59;61.36
60832;BME280;46665;51.558;-0.448;2023-04-27T12:37:38;100925.28;;;13.69;59.75
60832;BME280;46665;51.558;-0.448;2023-04-27T12:40:04;100910.84;;;13.82;60.34
60832;BME280;46665;51.558;-0.448;2023-04-27T12:42:31;100907.16;;;13.92;61.29
60832;BME280;46665;51.558;-0.448;2023-04-27T12:44:56;100907.72;;;14.07;61.42
60832;BME280;46665;51.558;-0.448;2023-04-27T12:47:22;100908.03;;;14.06;59.76
60832;BME280;46665;51.558;-0.448;2023-04-27T12:49:47;100914.84;;;14.08;60.02